Home > Products > Valid Products > MTR

000
SAUS43 KABR 221358
MTR8D3
METAR K8D3 221356Z AUTO 17006KT 02/02 A2946 RMK AO1 SLP991 T00170017





000
SAUS43 KABR 221257
MTR8D3
METAR K8D3 221256Z AUTO 16005KT 02/02 A2946 RMK AO1 SLP990 T00170017





000
SAUS43 KABR 221157
MTR8D3
METAR K8D3 221156Z AUTO 16007KT 02/02 A2945 RMK AO1 SLP989 60001
70001 T00170017 10017 20011 56006





000
SAUS43 KABR 221057
MTR8D3
METAR K8D3 221056Z AUTO 15010KT 02/02 A2945 RMK AO1 SLP990 T00170017





000
SAUS43 KABR 220957
MTR8D3
METAR K8D3 220956Z AUTO 16008KT 02/02 A2946 RMK AO1 SLP992 T00170017





000
SAUS43 KABR 220858
MTR8D3
METAR K8D3 220856Z AUTO 16009KT 02/02 A2947 RMK AO1 SLP994 P0001
60001 T00170017 56010





000
SAUS43 KABR 220757
MTR8D3
METAR K8D3 220756Z AUTO 16008KT 01/01 A2948 RMK AO1 SLP998 T00110011





000
SAUS43 KABR 220700
MTR8D3
METAR K8D3 220656Z AUTO 16008KT 01/01 A2949 RMK AO1 SLP002 T00110011





000
SAUS43 KABR 220557
MTR8D3
METAR K8D3 220556Z AUTO 15011KT 02/02 A2950 RMK AO1 SLP006 T00170017
10017 20006 400171011 58004





000
SAUS43 KABR 220457
MTR8D3
METAR K8D3 220456Z AUTO 14009KT 02/01 A2951 RMK AO1 SLP008 T00170011





000
SAUS43 KABR 220357
MTR8D3
METAR K8D3 220356Z AUTO 15008KT 01/01 A2952 RMK AO1 SLP012 T00110011





000
SAUS43 KABR 220258
MTR8D3
METAR K8D3 220256Z AUTO 15010KT 01/01 A2951 RMK AO1 SLP012 T00110011
58009





000
SAUS43 KABR 220158
MTR8D3
METAR K8D3 220156Z AUTO 15009KT 01/01 A2953 RMK AO1 SLP018 T00060006





000
SAUS43 KABR 220158
MTR8D3
METAR K8D3 220156Z AUTO 15009KT 01/01 A2953 RMK AO1 SLP018 T00060006





000
SAUS43 KABR 220057
MTR8D3
METAR K8D3 220056Z AUTO 17009KT 01/01 A2954 RMK AO1 SLP022 T00110006





000
SAUS43 KABR 212358
MTR8D3
METAR K8D3 212356Z AUTO 16011KT 01/01 A2954 RMK AO1 SLP022 T00060006
10011 20000 56005





000
SAUS43 KABR 212258
MTR8D3
METAR K8D3 212256Z AUTO 16010KT 01/00 A2955 RMK AO1 SLP024 T00060000





000
SAUS43 KABR 212157
MTR8D3
METAR K8D3 212156Z AUTO 15012KT 01/00 A2955 RMK AO1 SLP024 T00060000





000
SAUS43 KABR 212157
MTR8D3
METAR K8D3 212156Z AUTO 15012KT 01/00 A2955 RMK AO1 SLP024 T00060000





000
SAUS43 KABR 212057
MTR8D3
METAR K8D3 212056Z AUTO 16012KT 01/00 A2956 RMK AO1 SLP027 T00110000
56030





000
SAUS43 KABR 212002
MTR8D3
METAR K8D3 211956Z AUTO 17014KT 01/M01 A2958 RMK AO1 SLP035
T00061006





000
SAUS43 KABR 212002
MTR8D3
METAR K8D3 211956Z AUTO 17014KT 01/M01 A2958 RMK AO1 SLP035
T00061006





000
SAUS43 KABR 211658
MTR8D3
METAR K8D3 211656Z AUTO 18013KT 00/M01 A2968 RMK AO1 SLP070
T00001011





000
SAUS43 KABR 211559
MTR8D3
METAR K8D3 211556Z AUTO 17011KT M01/M01 A2969 RMK AO1 SLP073
T10061011





000
SAUS43 KABR 211457
MTR8D3
METAR K8D3 211456Z AUTO 16008KT M01/M02 A2970 RMK AO1 SLP078
T10111017 58024





000
SAUS43 KABR 211358
MTR8D3
METAR K8D3 211356Z AUTO 18009KT M01/M02 A2973 RMK AO1 SLP089
T10111017





000
SAUS43 KABR 211358
MTR8D3
METAR K8D3 211356Z AUTO 18009KT M01/M02 A2973 RMK AO1 SLP089
T10111017





000
SAUS43 KABR 211257
MTR8D3
METAR K8D3 211256Z AUTO 19007KT M01/M02 A2977 RMK AO1 SLP100
T10111017





000
SAUS43 KABR 211257
MTR8D3
METAR K8D3 211256Z AUTO 19007KT M01/M02 A2977 RMK AO1 SLP100
T10111017





000
SAUS43 KABR 211157
MTR8D3
METAR K8D3 211156Z AUTO 21007KT M01/M02 A2978 RMK AO1 SLP103
T10111017 11006 21011 56019





000
SAUS43 KABR 211157
MTR8D3
METAR K8D3 211156Z AUTO 21007KT M01/M02 A2978 RMK AO1 SLP103
T10111017 11006 21011 56019





000
SAUS43 KABR 211102
MTR8D3
METAR K8D3 211056Z AUTO 20011KT M01/M02 A2979 RMK AO1 SLP107
T10111017





000
SAUS43 KABR 211102
MTR8D3
METAR K8D3 211056Z AUTO 20011KT M01/M02 A2979 RMK AO1 SLP107
T10111017





000
SAUS43 KABR 210959
MTR8D3
METAR K8D3 210956Z AUTO 21008KT M01/M02 A2982 RMK AO1 SLP117
T10111017





000
SAUS43 KABR 210959
MTR8D3
METAR K8D3 210956Z AUTO 21008KT M01/M02 A2982 RMK AO1 SLP117
T10111017





000
SAUS43 KABR 210858
MTR8D3
METAR K8D3 210856Z AUTO 20010KT M01/M02 A2984 RMK AO1 SLP123
T10111017 56021





000
SAUS43 KABR 210757
MTR8D3
METAR K8D3 210756Z AUTO 22012KT M01/M02 A2986 RMK AO1 SLP130
T10061017





000
SAUS43 KABR 210657
MTR8D3
METAR K8D3 210656Z AUTO 22009KT M01/M02 A2987 RMK AO1 SLP135
T10061017





000
SAUS43 KABR 210557
MTR8D3
METAR K8D3 210556Z AUTO 19009KT M01/M02 A2990 RMK AO1 SLP145
T10061017 10000 21006 400001017 56010





000
SAUS43 KABR 210457
MTR8D3
METAR K8D3 210456Z AUTO 20009KT M01/M01 A2991 RMK AO1 SLP149
T10061011





000
SAUS43 KABR 210457
MTR8D3
METAR K8D3 210456Z AUTO 20009KT M01/M01 A2991 RMK AO1 SLP149
T10061011





000
SAUS43 KABR 210358
MTR8D3
METAR K8D3 210356Z AUTO 17009KT M01/M01 A2991 RMK AO1 SLP150
T10061011





000
SAUS43 KABR 210358
MTR8D3
METAR K8D3 210356Z AUTO 17009KT M01/M01 A2991 RMK AO1 SLP150
T10061011





000
SAUS43 KABR 210257
MTR8D3
METAR K8D3 210256Z AUTO 19010KT M01/M01 A2993 RMK AO1 SLP156
T10061011 55004





000
SAUS43 KABR 210157
MTR8D3
METAR K8D3 210156Z AUTO 18013KT M01/M01 A2992 RMK AO1 SLP154
T10061011





000
SAUS43 KABR 202358
MTR8D3
METAR K8D3 202356Z AUTO 19013KT M01/M01 A2994 RMK AO1 SLP159
T10061011 10000 21011 56010





000
SAUS43 KABR 202300
MTR8D3
METAR K8D3 202256Z AUTO 19010KT 00/M01 A2995 RMK AO1 SLP161
T00001011





000
SAUS43 KABR 202058
MTR8D3
METAR K8D3 202056Z AUTO 21010KT 00/M01 A2997 RMK AO1 SLP169
T00001011 56012





000
SAUS43 KABR 201957
MTR8D3
METAR K8D3 201956Z AUTO 19010KT M01/M02 A2997 RMK AO1 SLP169
T10061017





000
SAUS43 KABR 201900
MTR8D3
METAR K8D3 201856Z AUTO 21011KT M01/M02 A2999 RMK AO1 SLP176
T10061022





000
SAUS43 KABR 201758
MTR8D3
METAR K8D3 201756Z AUTO 21010KT M01/M02 A3001 RMK AO1 SLP183
T10111022 11011 21017 58005





000
SAUS43 KABR 201657
MTR8D3
METAR K8D3 201656Z AUTO 22010KT M02/M03 A3002 RMK AO1 SLP189
T10171028





000
SAUS43 KABR 201608 COR
MTR8D3
METAR K8D3 201556Z AUTO 20011KT M02/M03 A3003 RMK AO1 SLP189
T10171028





000
SAUS43 KABR 201604 COR
MTR8D3
METAR K8D3 201556Z AUTO 20011KT M02/M03 A3003 RMK AO1 SLP189
T10171028





000
SAUS43 KABR 201602 COR
MTR8D3
METAR K8D3 201556Z AUTO 20011KT M02/M03 A3003 RMK AO1 SLP189
T10171028





000
SAUS43 KABR 201600
MTR8D3
METAR K8D3 201556Z AUTO 20011KT M02/M03 A3003 RMK AO1 SLP189
T10171028





000
SAUS43 KABR 201500
MTR8D3
METAR K8D3 201456Z AUTO 22009KT M02/M03 A3002 RMK AO1 SLP188
T10171028 51003





000
SAUS43 KABR 201358
MTR8D3
METAR K8D3 201356Z AUTO 20008KT M02/M02 A3002 RMK AO1 SLP187
T10171022





000
SAUS43 KABR 201258
MTR8D3
METAR K8D3 201256Z AUTO 21007KT M01/M02 A3002 RMK AO1 SLP188
T10111022





000
SAUS43 KABR 201157
MTR8D3
METAR K8D3 201156Z AUTO 21007KT M01/M02 A3001 RMK AO1 SLP185
T10111022 11011 21011 58007





000
SAUS43 KABR 201057
MTR8D3
METAR K8D3 201056Z AUTO 22007KT M01/M02 A3002 RMK AO1 SLP185
T10111022





000
SAUS43 KABR 200957
MTR8D3
METAR K8D3 200956Z AUTO 24006KT M01/M02 A3003 RMK AO1 SLP191
T10111022





000
SAUS43 KABR 200858
MTR8D3
METAR K8D3 200856Z AUTO 24007KT M01/M02 A3003 RMK AO1 SLP191
T10111022 51006





000
SAUS43 KABR 200759
MTR8D3
METAR K8D3 200756Z AUTO 25006KT M01/M02 A3003 RMK AO1 SLP189
T10111022





000
SAUS43 KABR 200759
MTR8D3
METAR K8D3 200756Z AUTO 25006KT M01/M02 A3003 RMK AO1 SLP189
T10111022





000
SAUS43 KABR 200658
MTR8D3
METAR K8D3 200656Z AUTO 24008KT M01/M02 A3002 RMK AO1 SLP186
T10111022





000
SAUS43 KABR 200557
MTR8D3
METAR K8D3 200556Z AUTO 22009KT M01/M02 A3001 RMK AO1 SLP185
T10111022 11006 21011 410061056 56002





000
SAUS43 KABR 200508 COR
MTR8D3
METAR K8D3 200456Z AUTO 22008KT M01/M02 A3002 RMK AO1 SLP185
T10061022





000
SAUS43 KABR 200504 COR
MTR8D3
METAR K8D3 200456Z AUTO 22008KT M01/M02 A3002 RMK AO1 SLP185
T10061022





000
SAUS43 KABR 200502 COR
MTR8D3
METAR K8D3 200456Z AUTO 22008KT M01/M02 A3002 RMK AO1 SLP185
T10061022





000
SAUS43 KABR 200500
MTR8D3
METAR K8D3 200456Z AUTO 22008KT M01/M02 A3002 RMK AO1 SLP185
T10061022





000
SAUS43 KABR 200357
MTR8D3
METAR K8D3 200356Z AUTO 21006KT M01/M02 A3001 RMK AO1 SLP184
T10061022





000
SAUS43 KABR 200357
MTR8D3
METAR K8D3 200356Z AUTO 21006KT M01/M02 A3001 RMK AO1 SLP184
T10061022





000
SAUS43 KABR 200257
MTR8D3
METAR K8D3 200256Z AUTO 19007KT M01/M02 A3002 RMK AO1 SLP188
T10111017 57002





000
SAUS43 KABR 200158
MTR8D3
METAR K8D3 200156Z AUTO 18009KT M01/M02 A3002 RMK AO1 SLP188
T10111017





000
SAUS43 KABR 200158
MTR8D3
METAR K8D3 200156Z AUTO 18009KT M01/M02 A3002 RMK AO1 SLP188
T10111017





000
SAUS43 KABR 200057
MTR8D3
METAR K8D3 200056Z AUTO 18008KT M01/M02 A3003 RMK AO1 SLP191
T10111017





000
SAUS43 KABR 200000
MTR8D3
METAR K8D3 192356Z AUTO 17008KT M01/M02 A3003 RMK AO1 SLP191
T10111022 11006 21011 53002





000
SAUS43 KABR 192258
MTR8D3
METAR K8D3 192256Z AUTO 18008KT M01/M02 A3003 RMK AO1 SLP191
T10061017





000
SAUS43 KABR 192057
MTR8D3
METAR K8D3 192056Z AUTO 20010KT M01/M02 A3002 RMK AO1 SLP190
T10061022 55009





000
SAUS43 KABR 191958
MTR8D3
METAR K8D3 191956Z AUTO 20010KT M01/M02 A3002 RMK AO1 SLP190
T10061017





000
SAUS43 KABR 191958
MTR8D3
METAR K8D3 191956Z AUTO 20010KT M01/M02 A3002 RMK AO1 SLP190
T10061017





000
SAUS43 KABR 191857
MTR8D3
METAR K8D3 191856Z AUTO 20011KT M01/M02 A3003 RMK AO1 SLP193
T10061022





000
SAUS43 KABR 191657
MTR8D3
METAR K8D3 191656Z AUTO 21009KT M01/M02 A3007 RMK AO1 SLP207
T10111022





000
SAUS43 KABR 191558
MTR8D3
METAR K8D3 191556Z AUTO 21012KT M02/M03 A3007 RMK AO1 SLP211
T10171028





000
SAUS43 KABR 191458
MTR8D3
METAR K8D3 191456Z AUTO 20009KT M02/M03 A3008 RMK AO1 SLP211
T10221033 58007





    US Dept of Commerce
    National Oceanic and Atmospheric Administration
    National Weather Service
    1325 East West Highway
    Silver Spring, MD 20910
    Page Author: NWS Internet Services Team
Disclaimer
Information Quality
Credits
Glossary
Privacy Policy
Freedom of Information Act (FOIA)
About Us
Career Opportunities